sensor_id;sensor_type;location;lat;lon;timestamp;P1;durP1;ratioP1;P2;durP2;ratioP2
6093;SDS011;19964;42.060;24.700;2024-01-15T00:01:20;11.87;;;8.17;;
6093;SDS011;19964;42.060;24.700;2024-01-15T00:03:49;11.30;;;7.37;;
6093;SDS011;19964;42.060;24.700;2024-01-15T00:06:16;11.37;;;7.93;;
6093;SDS011;19964;42.060;24.700;2024-01-15T00:08:43;15.93;;;10.40;;
6093;SDS011;19964;42.060;24.700;2024-01-15T00:11:10;22.23;;;12.63;;
6093;SDS011;19964;42.060;24.700;2024-01-15T00:13:36;17.73;;;11.43;;
6093;SDS011;19964;42.060;24.700;2024-01-15T00:16:04;18.30;;;9.83;;
6093;SDS011;19964;42.060;24.700;2024-01-15T00:18:31;18.00;;;11.37;;
6093;SDS011;19964;42.060;24.700;2024-01-15T00:20:59;22.70;;;12.70;;
6093;SDS011;19964;42.060;24.700;2024-01-15T00:23:26;26.60;;;14.87;;
6093;SDS011;19964;42.060;24.700;2024-01-15T00:25:53;22.93;;;13.13;;
6093;SDS011;19964;42.060;24.700;2024-01-15T00:28:20;17.03;;;10.57;;
6093;SDS011;19964;42.060;24.700;2024-01-15T00:30:47;14.97;;;10.07;;
6093;SDS011;19964;42.060;24.700;2024-01-15T00:33:14;13.63;;;9.10;;
6093;SDS011;19964;42.060;24.700;2024-01-15T00:35:41;16.33;;;8.87;;
6093;SDS011;19964;42.060;24.700;2024-01-15T00:38:09;12.30;;;8.70;;
6093;SDS011;19964;42.060;24.700;2024-01-15T00:40:36;7.90;;;6.67;;
6093;SDS011;19964;42.060;24.700;2024-01-15T00:43:03;8.37;;;6.40;;
6093;SDS011;19964;42.060;24.700;2024-01-15T00:45:32;7.70;;;6.03;;
6093;SDS011;19964;42.060;24.700;2024-01-15T00:47:59;12.07;;;7.13;;
6093;SDS011;19964;42.060;24.700;2024-01-15T00:50:26;9.97;;;6.33;;
6093;SDS011;19964;42.060;24.700;2024-01-15T00:52:53;7.77;;;6.10;;
6093;SDS011;19964;42.060;24.700;2024-01-15T00:55:21;8.50;;;6.50;;
6093;SDS011;19964;42.060;24.700;2024-01-15T00:57:48;7.33;;;6.20;;
6093;SDS011;19964;42.060;24.700;2024-01-15T01:00:15;8.00;;;5.93;;
6093;SDS011;19964;42.060;24.700;2024-01-15T01:02:43;7.13;;;5.73;;
6093;SDS011;19964;42.060;24.700;2024-01-15T01:05:10;7.50;;;6.13;;
6093;SDS011;19964;42.060;24.700;2024-01-15T01:07:36;6.00;;;5.40;;
6093;SDS011;19964;42.060;24.700;2024-01-15T01:10:04;8.30;;;5.63;;
6093;SDS011;19964;42.060;24.700;2024-01-15T01:12:33;8.03;;;6.53;;
6093;SDS011;19964;42.060;24.700;2024-01-15T01:15:00;8.60;;;7.07;;
6093;SDS011;19964;42.060;24.700;2024-01-15T01:17:27;8.47;;;6.57;;
6093;SDS011;19964;42.060;24.700;2024-01-15T01:19:55;9.07;;;6.73;;
6093;SDS011;19964;42.060;24.700;2024-01-15T01:22:22;9.43;;;7.40;;
6093;SDS011;19964;42.060;24.700;2024-01-15T01:24:49;12.73;;;7.43;;
6093;SDS011;19964;42.060;24.700;2024-01-15T01:27:16;13.40;;;8.53;;
6093;SDS011;19964;42.060;24.700;2024-01-15T01:29:45;12.00;;;7.97;;
6093;SDS011;19964;42.060;24.700;2024-01-15T01:32:12;15.33;;;8.73;;
6093;SDS011;19964;42.060;24.700;2024-01-15T01:34:39;10.60;;;7.87;;
6093;SDS011;19964;42.060;24.700;2024-01-15T01:37:07;10.67;;;7.90;;
6093;SDS011;19964;42.060;24.700;2024-01-15T01:39:34;8.00;;;6.80;;
6093;SDS011;19964;42.060;24.700;2024-01-15T01:42:02;9.57;;;6.80;;
6093;SDS011;19964;42.060;24.700;2024-01-15T01:44:29;8.40;;;6.50;;
6093;SDS011;19964;42.060;24.700;2024-01-15T01:46:57;8.90;;;6.37;;
6093;SDS011;19964;42.060;24.700;2024-01-15T01:49:26;8.10;;;5.87;;
6093;SDS011;19964;42.060;24.700;2024-01-15T01:51:54;6.53;;;5.83;;
6093;SDS011;19964;42.060;24.700;2024-01-15T01:54:23;12.10;;;6.10;;
6093;SDS011;19964;42.060;24.700;2024-01-15T01:56:52;6.53;;;5.50;;
6093;SDS011;19964;42.060;24.700;2024-01-15T01:59:19;7.47;;;6.63;;
6093;SDS011;19964;42.060;24.700;2024-01-15T02:01:46;6.70;;;6.00;;
6093;SDS011;19964;42.060;24.700;2024-01-15T02:04:16;6.03;;;5.47;;
6093;SDS011;19964;42.060;24.700;2024-01-15T02:06:44;7.50;;;5.60;;
6093;SDS011;19964;42.060;24.700;2024-01-15T02:09:10;7.03;;;5.80;;
6093;SDS011;19964;42.060;24.700;2024-01-15T02:11:40;5.53;;;4.90;;
6093;SDS011;19964;42.060;24.700;2024-01-15T02:14:07;5.90;;;5.30;;
6093;SDS011;19964;42.060;24.700;2024-01-15T02:16:35;8.90;;;6.20;;
6093;SDS011;19964;42.060;24.700;2024-01-15T02:19:02;7.20;;;6.20;;
6093;SDS011;19964;42.060;24.700;2024-01-15T02:21:31;16.10;;;8.80;;
6093;SDS011;19964;42.060;24.700;2024-01-15T02:23:59;11.90;;;8.60;;
6093;SDS011;19964;42.060;24.700;2024-01-15T02:26:27;7.17;;;5.80;;
6093;SDS011;19964;42.060;24.700;2024-01-15T02:28:54;10.23;;;6.43;;
6093;SDS011;19964;42.060;24.700;2024-01-15T02:31:21;13.43;;;8.37;;
6093;SDS011;19964;42.060;24.700;2024-01-15T02:33:48;14.00;;;8.77;;
6093;SDS011;19964;42.060;24.700;2024-01-15T02:36:15;14.00;;;8.47;;
6093;SDS011;19964;42.060;24.700;2024-01-15T02:38:42;11.30;;;8.33;;
6093;SDS011;19964;42.060;24.700;2024-01-15T02:41:11;19.30;;;10.50;;
6093;SDS011;19964;42.060;24.700;2024-01-15T02:43:39;17.77;;;10.30;;
6093;SDS011;19964;42.060;24.700;2024-01-15T02:46:06;12.37;;;8.80;;
6093;SDS011;19964;42.060;24.700;2024-01-15T02:48:33;20.57;;;10.70;;
6093;SDS011;19964;42.060;24.700;2024-01-15T02:51:01;18.47;;;10.93;;
6093;SDS011;19964;42.060;24.700;2024-01-15T02:53:28;14.83;;;10.20;;
6093;SDS011;19964;42.060;24.700;2024-01-15T02:55:55;22.77;;;11.83;;
6093;SDS011;19964;42.060;24.700;2024-01-15T02:58:24;18.00;;;11.37;;
6093;SDS011;19964;42.060;24.700;2024-01-15T03:00:51;19.97;;;12.03;;
6093;SDS011;19964;42.060;24.700;2024-01-15T03:03:18;15.33;;;9.43;;
6093;SDS011;19964;42.060;24.700;2024-01-15T03:05:45;20.70;;;10.90;;
6093;SDS011;19964;42.060;24.700;2024-01-15T03:08:12;22.77;;;13.20;;
6093;SDS011;19964;42.060;24.700;2024-01-15T03:10:39;22.63;;;12.80;;
6093;SDS011;19964;42.060;24.700;2024-01-15T03:13:06;24.40;;;14.03;;
6093;SDS011;19964;42.060;24.700;2024-01-15T03:15:35;27.50;;;14.90;;
6093;SDS011;19964;42.060;24.700;2024-01-15T03:18:02;21.30;;;12.47;;
6093;SDS011;19964;42.060;24.700;2024-01-15T03:20:30;17.77;;;11.60;;
6093;SDS011;19964;42.060;24.700;2024-01-15T03:22:57;16.53;;;11.10;;
6093;SDS011;19964;42.060;24.700;2024-01-15T03:25:24;22.17;;;12.23;;
6093;SDS011;19964;42.060;24.700;2024-01-15T03:27:51;24.63;;;14.20;;
6093;SDS011;19964;42.060;24.700;2024-01-15T03:30:18;21.10;;;12.53;;
6093;SDS011;19964;42.060;24.700;2024-01-15T03:32:47;24.03;;;14.00;;
6093;SDS011;19964;42.060;24.700;2024-01-15T03:35:15;27.57;;;15.07;;
6093;SDS011;19964;42.060;24.700;2024-01-15T03:37:42;26.33;;;13.63;;
6093;SDS011;19964;42.060;24.700;2024-01-15T03:40:09;15.20;;;10.23;;
6093;SDS011;19964;42.060;24.700;2024-01-15T03:42:37;19.93;;;12.40;;
6093;SDS011;19964;42.060;24.700;2024-01-15T03:45:05;19.77;;;12.17;;
6093;SDS011;19964;42.060;24.700;2024-01-15T03:47:32;21.50;;;10.47;;
6093;SDS011;19964;42.060;24.700;2024-01-15T03:50:01;21.37;;;10.87;;
6093;SDS011;19964;42.060;24.700;2024-01-15T03:52:28;21.40;;;12.47;;
6093;SDS011;19964;42.060;24.700;2024-01-15T03:54:55;19.23;;;10.53;;
6093;SDS011;19964;42.060;24.700;2024-01-15T03:57:22;15.13;;;9.93;;
6093;SDS011;19964;42.060;24.700;2024-01-15T03:59:49;17.97;;;9.37;;
6093;SDS011;19964;42.060;24.700;2024-01-15T04:02:16;12.60;;;8.93;;
6093;SDS011;19964;42.060;24.700;2024-01-15T04:04:43;12.43;;;9.00;;
6093;SDS011;19964;42.060;24.700;2024-01-15T04:07:12;12.97;;;8.53;;
6093;SDS011;19964;42.060;24.700;2024-01-15T04:09:39;11.17;;;7.77;;
6093;SDS011;19964;42.060;24.700;2024-01-15T04:12:06;11.87;;;7.60;;
6093;SDS011;19964;42.060;24.700;2024-01-15T04:14:34;9.37;;;6.20;;
6093;SDS011;19964;42.060;24.700;2024-01-15T04:17:01;11.63;;;7.67;;
6093;SDS011;19964;42.060;24.700;2024-01-15T04:19:28;7.90;;;6.27;;
6093;SDS011;19964;42.060;24.700;2024-01-15T04:21:55;10.83;;;6.57;;
6093;SDS011;19964;42.060;24.700;2024-01-15T04:24:23;12.77;;;6.90;;
6093;SDS011;19964;42.060;24.700;2024-01-15T04:26:51;9.77;;;7.30;;
6093;SDS011;19964;42.060;24.700;2024-01-15T04:29:18;11.83;;;8.07;;
6093;SDS011;19964;42.060;24.700;2024-01-15T04:31:45;10.37;;;7.40;;
6093;SDS011;19964;42.060;24.700;2024-01-15T04:34:12;10.43;;;8.00;;
6093;SDS011;19964;42.060;24.700;2024-01-15T04:36:39;14.43;;;7.93;;
6093;SDS011;19964;42.060;24.700;2024-01-15T04:39:06;11.47;;;7.50;;
6093;SDS011;19964;42.060;24.700;2024-01-15T04:41:35;12.33;;;8.10;;
6093;SDS011;19964;42.060;24.700;2024-01-15T04:44:02;10.63;;;6.87;;
6093;SDS011;19964;42.060;24.700;2024-01-15T04:46:29;9.87;;;6.93;;
6093;SDS011;19964;42.060;24.700;2024-01-15T04:48:56;8.30;;;6.97;;
6093;SDS011;19964;42.060;24.700;2024-01-15T04:51:23;8.63;;;5.87;;
6093;SDS011;19964;42.060;24.700;2024-01-15T04:53:50;7.77;;;5.87;;
6093;SDS011;19964;42.060;24.700;2024-01-15T04:56:17;8.87;;;5.97;;
6093;SDS011;19964;42.060;24.700;2024-01-15T04:58:45;10.57;;;5.80;;
6093;SDS011;19964;42.060;24.700;2024-01-15T05:01:12;6.23;;;5.50;;
6093;SDS011;19964;42.060;24.700;2024-01-15T05:03:41;7.33;;;5.73;;
6093;SDS011;19964;42.060;24.700;2024-01-15T05:06:08;6.93;;;5.17;;
6093;SDS011;19964;42.060;24.700;2024-01-15T05:08:35;5.60;;;5.00;;
6093;SDS011;19964;42.060;24.700;2024-01-15T05:11:02;6.97;;;5.50;;
6093;SDS011;19964;42.060;24.700;2024-01-15T05:13:29;20.63;;;10.67;;
6093;SDS011;19964;42.060;24.700;2024-01-15T05:15:58;6.67;;;6.07;;
6093;SDS011;19964;42.060;24.700;2024-01-15T05:18:25;6.33;;;5.40;;
6093;SDS011;19964;42.060;24.700;2024-01-15T05:20:52;9.40;;;6.67;;
6093;SDS011;19964;42.060;24.700;2024-01-15T05:23:19;7.07;;;6.07;;
6093;SDS011;19964;42.060;24.700;2024-01-15T05:25:46;5.53;;;4.50;;
6093;SDS011;19964;42.060;24.700;2024-01-15T05:28:13;5.03;;;4.53;;
6093;SDS011;19964;42.060;24.700;2024-01-15T05:30:41;5.83;;;5.30;;
6093;SDS011;19964;42.060;24.700;2024-01-15T05:33:09;8.67;;;7.27;;
6093;SDS011;19964;42.060;24.700;2024-01-15T05:35:36;13.07;;;7.90;;
6093;SDS011;19964;42.060;24.700;2024-01-15T05:38:03;8.80;;;6.60;;
6093;SDS011;19964;42.060;24.700;2024-01-15T05:40:30;7.50;;;5.13;;
6093;SDS011;19964;42.060;24.700;2024-01-15T05:42:57;15.73;;;9.50;;
6093;SDS011;19964;42.060;24.700;2024-01-15T05:45:25;16.00;;;9.77;;
6093;SDS011;19964;42.060;24.700;2024-01-15T05:47:53;7.77;;;5.97;;
6093;SDS011;19964;42.060;24.700;2024-01-15T05:50:21;17.13;;;9.40;;
6093;SDS011;19964;42.060;24.700;2024-01-15T05:52:48;15.03;;;10.23;;
6093;SDS011;19964;42.060;24.700;2024-01-15T05:55:15;15.20;;;10.33;;
6093;SDS011;19964;42.060;24.700;2024-01-15T05:57:43;12.80;;;8.60;;
6093;SDS011;19964;42.060;24.700;2024-01-15T06:00:11;9.93;;;7.43;;
6093;SDS011;19964;42.060;24.700;2024-01-15T06:02:38;16.37;;;9.90;;
6093;SDS011;19964;42.060;24.700;2024-01-15T06:05:05;20.37;;;11.77;;
6093;SDS011;19964;42.060;24.700;2024-01-15T06:07:34;13.93;;;8.10;;
6093;SDS011;19964;42.060;24.700;2024-01-15T06:10:02;10.57;;;6.87;;
6093;SDS011;19964;42.060;24.700;2024-01-15T06:12:29;7.07;;;6.00;;
6093;SDS011;19964;42.060;24.700;2024-01-15T06:14:57;13.80;;;8.73;;
6093;SDS011;19964;42.060;24.700;2024-01-15T06:17:24;14.37;;;8.97;;
6093;SDS011;19964;42.060;24.700;2024-01-15T06:19:51;10.77;;;7.10;;
6093;SDS011;19964;42.060;24.700;2024-01-15T06:22:18;11.73;;;7.37;;
6093;SDS011;19964;42.060;24.700;2024-01-15T06:24:46;9.97;;;7.03;;
6093;SDS011;19964;42.060;24.700;2024-01-15T06:27:13;10.10;;;7.67;;
6093;SDS011;19964;42.060;24.700;2024-01-15T06:29:44;9.63;;;7.40;;
6093;SDS011;19964;42.060;24.700;2024-01-15T06:32:12;12.95;;;7.70;;
6093;SDS011;19964;42.060;24.700;2024-01-15T06:34:39;12.83;;;8.43;;
6093;SDS011;19964;42.060;24.700;2024-01-15T06:37:06;11.10;;;8.13;;
6093;SDS011;19964;42.060;24.700;2024-01-15T06:39:33;13.80;;;9.67;;
6093;SDS011;19964;42.060;24.700;2024-01-15T06:42:02;12.80;;;9.43;;
6093;SDS011;19964;42.060;24.700;2024-01-15T06:44:30;17.23;;;10.37;;
6093;SDS011;19964;42.060;24.700;2024-01-15T06:46:57;13.80;;;8.67;;
6093;SDS011;19964;42.060;24.700;2024-01-15T06:49:27;13.33;;;9.60;;
6093;SDS011;19964;42.060;24.700;2024-01-15T06:51:54;17.13;;;9.47;;
6093;SDS011;19964;42.060;24.700;2024-01-15T06:54:21;16.10;;;9.60;;
6093;SDS011;19964;42.060;24.700;2024-01-15T06:56:48;16.17;;;10.27;;
6093;SDS011;19964;42.060;24.700;2024-01-15T06:59:17;15.87;;;10.60;;
6093;SDS011;19964;42.060;24.700;2024-01-15T07:01:44;14.77;;;9.60;;
6093;SDS011;19964;42.060;24.700;2024-01-15T07:04:11;17.07;;;11.00;;
6093;SDS011;19964;42.060;24.700;2024-01-15T07:06:38;20.33;;;11.87;;
6093;SDS011;19964;42.060;24.700;2024-01-15T07:09:05;22.83;;;13.10;;
6093;SDS011;19964;42.060;24.700;2024-01-15T07:11:34;22.17;;;12.80;;
6093;SDS011;19964;42.060;24.700;2024-01-15T07:14:01;17.60;;;11.17;;
6093;SDS011;19964;42.060;24.700;2024-01-15T07:16:29;19.73;;;11.30;;
6093;SDS011;19964;42.060;24.700;2024-01-15T07:18:56;21.63;;;12.60;;
6093;SDS011;19964;42.060;24.700;2024-01-15T07:21:23;21.73;;;14.47;;
6093;SDS011;19964;42.060;24.700;2024-01-15T07:23:50;21.37;;;13.00;;
6093;SDS011;19964;42.060;24.700;2024-01-15T07:26:17;20.67;;;13.20;;
6093;SDS011;19964;42.060;24.700;2024-01-15T07:28:44;26.73;;;15.03;;
6093;SDS011;19964;42.060;24.700;2024-01-15T07:31:10;17.60;;;12.03;;
6093;SDS011;19964;42.060;24.700;2024-01-15T07:33:39;33.17;;;20.13;;
6093;SDS011;19964;42.060;24.700;2024-01-15T07:36:06;48.07;;;26.23;;
6093;SDS011;19964;42.060;24.700;2024-01-15T07:38:33;52.70;;;29.63;;
6093;SDS011;19964;42.060;24.700;2024-01-15T07:41:00;44.07;;;25.80;;
6093;SDS011;19964;42.060;24.700;2024-01-15T07:43:27;47.23;;;29.33;;
6093;SDS011;19964;42.060;24.700;2024-01-15T07:45:54;41.33;;;23.83;;
6093;SDS011;19964;42.060;24.700;2024-01-15T07:48:22;36.27;;;21.90;;
6093;SDS011;19964;42.060;24.700;2024-01-15T07:50:50;62.93;;;34.60;;
6093;SDS011;19964;42.060;24.700;2024-01-15T07:53:17;57.83;;;30.37;;
6093;SDS011;19964;42.060;24.700;2024-01-15T07:55:44;58.07;;;31.53;;
6093;SDS011;19964;42.060;24.700;2024-01-15T07:58:12;55.50;;;34.33;;
6093;SDS011;19964;42.060;24.700;2024-01-15T08:00:39;56.57;;;31.00;;
6093;SDS011;19964;42.060;24.700;2024-01-15T08:03:06;56.90;;;31.60;;
6093;SDS011;19964;42.060;24.700;2024-01-15T08:05:32;67.20;;;38.77;;
6093;SDS011;19964;42.060;24.700;2024-01-15T08:08:01;65.40;;;38.33;;
6093;SDS011;19964;42.060;24.700;2024-01-15T08:10:28;66.20;;;37.70;;
6093;SDS011;19964;42.060;24.700;2024-01-15T08:12:55;60.17;;;35.43;;
6093;SDS011;19964;42.060;24.700;2024-01-15T08:15:22;60.93;;;34.97;;
6093;SDS011;19964;42.060;24.700;2024-01-15T08:17:49;53.27;;;33.53;;
6093;SDS011;19964;42.060;24.700;2024-01-15T08:20:17;54.87;;;33.80;;
6093;SDS011;19964;42.060;24.700;2024-01-15T08:22:44;56.37;;;33.93;;
6093;SDS011;19964;42.060;24.700;2024-01-15T08:25:13;58.73;;;36.20;;
6093;SDS011;19964;42.060;24.700;2024-01-15T08:27:40;48.37;;;30.70;;
6093;SDS011;19964;42.060;24.700;2024-01-15T08:30:08;50.73;;;30.50;;
6093;SDS011;19964;42.060;24.700;2024-01-15T08:32:36;46.43;;;28.00;;
6093;SDS011;19964;42.060;24.700;2024-01-15T08:35:07;50.43;;;29.77;;
6093;SDS011;19964;42.060;24.700;2024-01-15T08:37:34;55.80;;;33.60;;
6093;SDS011;19964;42.060;24.700;2024-01-15T08:40:01;56.37;;;32.00;;
6093;SDS011;19964;42.060;24.700;2024-01-15T08:42:29;63.07;;;34.60;;
6093;SDS011;19964;42.060;24.700;2024-01-15T08:44:56;61.13;;;36.03;;
6093;SDS011;19964;42.060;24.700;2024-01-15T08:47:23;68.40;;;33.87;;
6093;SDS011;19964;42.060;24.700;2024-01-15T08:49:51;58.80;;;33.50;;
6093;SDS011;19964;42.060;24.700;2024-01-15T08:52:18;82.73;;;43.93;;
6093;SDS011;19964;42.060;24.700;2024-01-15T08:54:45;82.70;;;42.83;;
6093;SDS011;19964;42.060;24.700;2024-01-15T08:57:12;99.60;;;48.60;;
6093;SDS011;19964;42.060;24.700;2024-01-15T08:59:40;58.00;;;36.13;;
6093;SDS011;19964;42.060;24.700;2024-01-15T09:02:08;58.30;;;33.83;;
6093;SDS011;19964;42.060;24.700;2024-01-15T09:04:35;49.23;;;31.03;;
6093;SDS011;19964;42.060;24.700;2024-01-15T09:07:02;63.30;;;36.20;;
6093;SDS011;19964;42.060;24.700;2024-01-15T09:09:29;77.83;;;41.50;;
6093;SDS011;19964;42.060;24.700;2024-01-15T09:11:56;70.50;;;39.50;;
6093;SDS011;19964;42.060;24.700;2024-01-15T09:14:23;61.50;;;34.30;;
6093;SDS011;19964;42.060;24.700;2024-01-15T09:16:53;59.60;;;32.47;;
6093;SDS011;19964;42.060;24.700;2024-01-15T09:19:21;56.30;;;32.40;;
6093;SDS011;19964;42.060;24.700;2024-01-15T09:21:48;58.83;;;32.03;;
6093;SDS011;19964;42.060;24.700;2024-01-15T09:24:15;60.70;;;31.67;;
6093;SDS011;19964;42.060;24.700;2024-01-15T09:26:42;55.73;;;31.27;;
6093;SDS011;19964;42.060;24.700;2024-01-15T09:29:10;60.03;;;31.70;;
6093;SDS011;19964;42.060;24.700;2024-01-15T09:31:37;49.33;;;28.87;;
6093;SDS011;19964;42.060;24.700;2024-01-15T09:34:05;53.13;;;30.63;;
6093;SDS011;19964;42.060;24.700;2024-01-15T09:36:32;53.13;;;30.50;;
6093;SDS011;19964;42.060;24.700;2024-01-15T09:38:59;60.77;;;33.87;;
6093;SDS011;19964;42.060;24.700;2024-01-15T09:41:27;57.30;;;31.10;;
6093;SDS011;19964;42.060;24.700;2024-01-15T09:43:54;53.47;;;31.27;;
6093;SDS011;19964;42.060;24.700;2024-01-15T09:46:21;55.20;;;29.53;;
6093;SDS011;19964;42.060;24.700;2024-01-15T09:48:48;51.33;;;31.87;;
6093;SDS011;19964;42.060;24.700;2024-01-15T09:51:16;55.07;;;31.90;;
6093;SDS011;19964;42.060;24.700;2024-01-15T09:53:44;66.57;;;33.17;;
6093;SDS011;19964;42.060;24.700;2024-01-15T09:56:12;55.47;;;32.27;;
6093;SDS011;19964;42.060;24.700;2024-01-15T09:58:41;58.83;;;32.20;;
6093;SDS011;19964;42.060;24.700;2024-01-15T10:01:08;59.37;;;33.90;;
6093;SDS011;19964;42.060;24.700;2024-01-15T10:03:36;54.03;;;31.50;;
6093;SDS011;19964;42.060;24.700;2024-01-15T10:06:04;56.53;;;30.80;;
6093;SDS011;19964;42.060;24.700;2024-01-15T10:08:34;53.07;;;31.33;;
6093;SDS011;19964;42.060;24.700;2024-01-15T10:11:03;53.47;;;29.77;;
6093;SDS011;19964;42.060;24.700;2024-01-15T10:13:30;52.77;;;30.43;;
6093;SDS011;19964;42.060;24.700;2024-01-15T10:15:57;53.67;;;29.77;;
6093;SDS011;19964;42.060;24.700;2024-01-15T10:18:25;51.83;;;30.03;;
6093;SDS011;19964;42.060;24.700;2024-01-15T10:20:52;53.57;;;29.73;;
6093;SDS011;19964;42.060;24.700;2024-01-15T10:23:19;49.63;;;29.30;;
6093;SDS011;19964;42.060;24.700;2024-01-15T10:25:48;53.73;;;30.07;;
6093;SDS011;19964;42.060;24.700;2024-01-15T10:28:17;49.27;;;28.90;;
6093;SDS011;19964;42.060;24.700;2024-01-15T10:30:45;51.70;;;29.90;;
6093;SDS011;19964;42.060;24.700;2024-01-15T10:33:12;44.33;;;27.67;;
6093;SDS011;19964;42.060;24.700;2024-01-15T10:35:40;45.20;;;28.07;;
6093;SDS011;19964;42.060;24.700;2024-01-15T10:38:07;45.63;;;27.77;;
6093;SDS011;19964;42.060;24.700;2024-01-15T10:40:34;44.13;;;28.03;;
6093;SDS011;19964;42.060;24.700;2024-01-15T10:43:03;42.93;;;27.23;;
6093;SDS011;19964;42.060;24.700;2024-01-15T10:45:30;43.83;;;27.87;;
6093;SDS011;19964;42.060;24.700;2024-01-15T10:47:57;39.77;;;25.93;;
6093;SDS011;19964;42.060;24.700;2024-01-15T10:50:27;42.43;;;26.40;;
6093;SDS011;19964;42.060;24.700;2024-01-15T10:52:56;42.77;;;26.50;;
6093;SDS011;19964;42.060;24.700;2024-01-15T10:55:23;73.90;;;38.67;;
6093;SDS011;19964;42.060;24.700;2024-01-15T10:57:52;44.93;;;29.27;;
6093;SDS011;19964;42.060;24.700;2024-01-15T11:00:23;42.07;;;26.60;;
6093;SDS011;19964;42.060;24.700;2024-01-15T11:02:50;40.40;;;25.10;;
6093;SDS011;19964;42.060;24.700;2024-01-15T11:05:20;40.17;;;24.43;;
6093;SDS011;19964;42.060;24.700;2024-01-15T11:07:48;35.27;;;23.47;;
6093;SDS011;19964;42.060;24.700;2024-01-15T11:13:08;37.63;;;22.83;;
6093;SDS011;19964;42.060;24.700;2024-01-15T11:18:23;35.37;;;22.17;;
6093;SDS011;19964;42.060;24.700;2024-01-15T11:23:50;37.90;;;22.60;;
6093;SDS011;19964;42.060;24.700;2024-01-15T11:29:03;36.10;;;22.50;;
6093;SDS011;19964;42.060;24.700;2024-01-15T11:37:19;43.50;;;27.53;;
6093;SDS011;19964;42.060;24.700;2024-01-15T11:39:49;45.97;;;28.63;;
6093;SDS011;19964;42.060;24.700;2024-01-15T11:42:18;44.40;;;28.07;;
6093;SDS011;19964;42.060;24.700;2024-01-15T11:44:46;54.10;;;31.77;;
6093;SDS011;19964;42.060;24.700;2024-01-15T11:47:14;61.00;;;33.40;;
6093;SDS011;19964;42.060;24.700;2024-01-15T11:49:53;54.43;;;32.40;;
6093;SDS011;19964;42.060;24.700;2024-01-15T11:52:26;53.13;;;31.87;;
6093;SDS011;19964;42.060;24.700;2024-01-15T11:54:56;57.57;;;32.87;;
6093;SDS011;19964;42.060;24.700;2024-01-15T11:57:31;51.37;;;31.33;;
6093;SDS011;19964;42.060;24.700;2024-01-15T12:00:03;56.80;;;30.57;;
6093;SDS011;19964;42.060;24.700;2024-01-15T12:02:33;50.07;;;30.87;;
6093;SDS011;19964;42.060;24.700;2024-01-15T12:05:00;54.70;;;31.73;;
6093;SDS011;19964;42.060;24.700;2024-01-15T12:07:28;49.70;;;28.53;;
6093;SDS011;19964;42.060;24.700;2024-01-15T12:09:55;53.87;;;29.90;;
6093;SDS011;19964;42.060;24.700;2024-01-15T12:12:24;47.53;;;29.03;;
6093;SDS011;19964;42.060;24.700;2024-01-15T12:14:55;44.83;;;27.33;;
6093;SDS011;19964;42.060;24.700;2024-01-15T12:17:23;50.03;;;28.20;;
6093;SDS011;19964;42.060;24.700;2024-01-15T12:19:51;51.17;;;29.23;;
6093;SDS011;19964;42.060;24.700;2024-01-15T12:22:18;45.47;;;28.23;;
6093;SDS011;19964;42.060;24.700;2024-01-15T12:24:45;48.07;;;27.93;;
6093;SDS011;19964;42.060;24.700;2024-01-15T12:27:12;49.93;;;29.03;;
6093;SDS011;19964;42.060;24.700;2024-01-15T12:29:39;51.63;;;27.80;;
6093;SDS011;19964;42.060;24.700;2024-01-15T12:32:06;51.17;;;28.93;;
6093;SDS011;19964;42.060;24.700;2024-01-15T12:34:33;47.00;;;26.00;;
6093;SDS011;19964;42.060;24.700;2024-01-15T12:37:01;49.43;;;28.63;;
6093;SDS011;19964;42.060;24.700;2024-01-15T12:39:28;41.77;;;24.70;;
6093;SDS011;19964;42.060;24.700;2024-01-15T12:41:57;48.57;;;27.60;;
6093;SDS011;19964;42.060;24.700;2024-01-15T12:44:24;58.00;;;28.80;;
6093;SDS011;19964;42.060;24.700;2024-01-15T12:46:51;47.03;;;29.13;;
6093;SDS011;19964;42.060;24.700;2024-01-15T12:49:18;46.40;;;27.97;;
6093;SDS011;19964;42.060;24.700;2024-01-15T12:51:51;55.27;;;28.87;;
6093;SDS011;19964;42.060;24.700;2024-01-15T12:54:20;67.00;;;30.40;;
6093;SDS011;19964;42.060;24.700;2024-01-15T12:56:47;48.43;;;28.70;;
6093;SDS011;19964;42.060;24.700;2024-01-15T12:59:14;51.43;;;28.97;;
6093;SDS011;19964;42.060;24.700;2024-01-15T13:01:41;55.73;;;29.60;;
6093;SDS011;19964;42.060;24.700;2024-01-15T13:04:08;50.10;;;28.47;;
6093;SDS011;19964;42.060;24.700;2024-01-15T13:06:35;51.73;;;29.33;;
6093;SDS011;19964;42.060;24.700;2024-01-15T13:09:03;60.27;;;29.37;;
6093;SDS011;19964;42.060;24.700;2024-01-15T13:11:32;59.37;;;31.47;;
6093;SDS011;19964;42.060;24.700;2024-01-15T13:13:59;48.83;;;29.20;;
6093;SDS011;19964;42.060;24.700;2024-01-15T13:16:26;52.87;;;28.60;;
6093;SDS011;19964;42.060;24.700;2024-01-15T13:18:54;51.50;;;29.63;;
6093;SDS011;19964;42.060;24.700;2024-01-15T13:21:21;58.17;;;32.43;;
6093;SDS011;19964;42.060;24.700;2024-01-15T13:23:48;59.77;;;32.20;;
6093;SDS011;19964;42.060;24.700;2024-01-15T13:26:15;60.80;;;31.83;;
6093;SDS011;19964;42.060;24.700;2024-01-15T13:28:44;64.00;;;32.13;;
6093;SDS011;19964;42.060;24.700;2024-01-15T13:31:11;56.73;;;32.67;;
6093;SDS011;19964;42.060;24.700;2024-01-15T13:33:39;58.70;;;31.00;;
6093;SDS011;19964;42.060;24.700;2024-01-15T13:36:07;57.97;;;29.83;;
6093;SDS011;19964;42.060;24.700;2024-01-15T13:38:35;55.97;;;32.23;;
6093;SDS011;19964;42.060;24.700;2024-01-15T13:41:03;63.70;;;32.47;;
6093;SDS011;19964;42.060;24.700;2024-01-15T13:43:31;56.17;;;30.80;;
6093;SDS011;19964;42.060;24.700;2024-01-15T13:46:00;53.53;;;30.90;;
6093;SDS011;19964;42.060;24.700;2024-01-15T13:48:29;55.47;;;31.47;;
6093;SDS011;19964;42.060;24.700;2024-01-15T13:50:57;63.00;;;31.33;;
6093;SDS011;19964;42.060;24.700;2024-01-15T13:53:25;62.43;;;33.83;;
6093;SDS011;19964;42.060;24.700;2024-01-15T13:55:52;62.20;;;32.37;;
6093;SDS011;19964;42.060;24.700;2024-01-15T13:58:19;77.33;;;38.47;;
6093;SDS011;19964;42.060;24.700;2024-01-15T14:00:46;60.73;;;33.63;;
6093;SDS011;19964;42.060;24.700;2024-01-15T14:03:16;60.10;;;33.87;;
6093;SDS011;19964;42.060;24.700;2024-01-15T14:05:44;61.23;;;33.40;;
6093;SDS011;19964;42.060;24.700;2024-01-15T14:08:11;58.83;;;34.70;;
6093;SDS011;19964;42.060;24.700;2024-01-15T14:10:38;61.57;;;33.80;;
6093;SDS011;19964;42.060;24.700;2024-01-15T14:13:05;183.83;;;71.53;;
6093;SDS011;19964;42.060;24.700;2024-01-15T14:15:32;76.90;;;39.63;;
6093;SDS011;19964;42.060;24.700;2024-01-15T14:17:59;76.20;;;40.77;;
6093;SDS011;19964;42.060;24.700;2024-01-15T14:20:28;80.43;;;41.00;;
6093;SDS011;19964;42.060;24.700;2024-01-15T14:22:55;91.03;;;46.63;;
6093;SDS011;19964;42.060;24.700;2024-01-15T14:25:22;91.53;;;46.67;;
6093;SDS011;19964;42.060;24.700;2024-01-15T14:27:49;92.63;;;48.63;;
6093;SDS011;19964;42.060;24.700;2024-01-15T14:30:16;101.83;;;52.40;;
6093;SDS011;19964;42.060;24.700;2024-01-15T14:32:43;111.47;;;59.27;;
6093;SDS011;19964;42.060;24.700;2024-01-15T14:35:10;111.97;;;58.93;;
6093;SDS011;19964;42.060;24.700;2024-01-15T14:37:40;96.70;;;51.20;;
6093;SDS011;19964;42.060;24.700;2024-01-15T14:40:07;95.70;;;51.27;;
6093;SDS011;19964;42.060;24.700;2024-01-15T14:42:35;101.10;;;51.83;;
6093;SDS011;19964;42.060;24.700;2024-01-15T14:45:03;97.20;;;49.13;;
6093;SDS011;19964;42.060;24.700;2024-01-15T14:47:36;99.53;;;48.50;;